Time;durP1;ratioP1;P1;durP2;ratioP2;P2;SDS_P1;SDS_P2;PMS_P1;PMS_P2;Temp;Humidity;BMP_temperature;BMP_pressure;BME280_temperature;BME280_humidity;BME280_pressure;Samples;Min_cycle;Max_cycle;Signal;HPM_P1;HPM_P2
2023/07/22 00:02:24;;;;;;;56.97;2.40;;;;;;;;;;5094520;28;20493;-72
2023/07/22 00:04:53;;;;;;;57.17;2.60;;;;;;;;;;5094539;28;20488;-72
2023/07/22 00:07:20;;;;;;;56.90;2.47;;;;;;;;;;5094681;28;20442;-72
2023/07/22 00:09:49;;;;;;;56.70;2.30;;;;;;;;;;5085291;28;20599;-71
2023/07/22 00:12:16;;;;;;;56.77;2.37;;;;;;;;;;5082355;28;20469;-72
2023/07/22 00:14:44;;;;;;;57.40;2.40;;;;;;;;;;5082803;28;20551;-71
2023/07/22 00:17:11;;;;;;;56.97;2.40;;;;;;;;;;5092937;28;20445;-72
2023/07/22 00:19:38;;;;;;;57.43;2.77;;;;;;;;;;5082458;28;20454;-72
2023/07/22 00:22:07;;;;;;;57.10;2.40;;;;;;;;;;5093926;28;20485;-71
2023/07/22 00:24:34;;;;;;;56.90;2.60;;;;;;;;;;5094804;28;20551;-71
2023/07/22 00:27:01;;;;;;;56.87;2.50;;;;;;;;;;5094400;28;20454;-72
2023/07/22 00:29:28;;;;;;;56.77;2.37;;;;;;;;;;5094434;28;20478;-71
2023/07/22 00:31:55;;;;;;;57.07;2.57;;;;;;;;;;5093973;28;20466;-71
2023/07/22 00:34:23;;;;;;;57.20;2.80;;;;;;;;;;5094281;28;20442;-71
2023/07/22 00:36:50;;;;;;;56.90;2.50;;;;;;;;;;5094353;28;20496;-71
2023/07/22 00:39:20;;;;;;;56.77;2.60;;;;;;;;;;5094634;28;20821;-72
2023/07/22 00:41:47;;;;;;;56.67;2.30;;;;;;;;;;5094083;28;20455;-71
2023/07/22 00:44:14;;;;;;;56.97;2.60;;;;;;;;;;5093800;28;20482;-71
2023/07/22 00:46:41;;;;;;;57.10;2.40;;;;;;;;;;5094118;28;20541;-72
2023/07/22 00:49:09;;;;;;;56.87;2.50;;;;;;;;;;5093994;28;20461;-71
2023/07/22 00:51:36;;;;;;;59.67;2.53;;;;;;;;;;5093737;28;20961;-71
2023/07/22 00:54:04;;;;;;;57.30;3.67;;;;;;;;;;5093950;28;20444;-71
2023/07/22 00:56:34;;;;;;;56.87;2.40;;;;;;;;;;5093799;28;20463;-72
2023/07/22 00:59:02;;;;;;;57.07;2.90;;;;;;;;;;5094037;28;20453;-71
2023/07/22 01:01:29;;;;;;;57.07;2.60;;;;;;;;;;5093529;28;20470;-71
2023/07/22 01:03:56;;;;;;;57.07;2.40;;;;;;;;;;5093681;28;20489;-71
2023/07/22 01:06:24;;;;;;;56.83;2.40;;;;;;;;;;5093948;28;20457;-71
2023/07/22 01:08:51;;;;;;;57.03;2.40;;;;;;;;;;5093825;28;20451;-71
2023/07/22 01:11:18;;;;;;;56.90;2.40;;;;;;;;;;5093506;28;20446;-72
2023/07/22 01:13:47;;;;;;;56.97;2.57;;;;;;;;;;5093658;28;20442;-72
2023/07/22 01:16:14;;;;;;;56.67;2.40;;;;;;;;;;5089238;28;20479;-72
2023/07/22 01:18:41;;;;;;;57.00;2.70;;;;;;;;;;5073164;28;20935;-71
2023/07/22 01:21:09;;;;;;;56.73;2.50;;;;;;;;;;5072969;28;20455;-72
2023/07/22 01:23:39;;;;;;;57.27;2.47;;;;;;;;;;5073200;28;20454;-72
2023/07/22 01:26:07;;;;;;;57.13;2.50;;;;;;;;;;5072784;28;21032;-71
2023/07/22 01:28:36;;;;;;;57.10;2.40;;;;;;;;;;5072817;28;20447;-71
2023/07/22 01:31:05;;;;;;;57.10;2.80;;;;;;;;;;5073110;28;20452;-71
2023/07/22 01:33:32;;;;;;;56.83;2.40;;;;;;;;;;5072819;28;20506;-71
2023/07/22 01:35:59;;;;;;;56.77;2.50;;;;;;;;;;5072720;28;20448;-72
2023/07/22 01:38:26;;;;;;;56.97;2.40;;;;;;;;;;5073007;28;20447;-71
2023/07/22 01:40:54;;;;;;;56.57;2.47;;;;;;;;;;5071397;28;20467;-72
2023/07/22 01:43:22;;;;;;;56.90;2.50;;;;;;;;;;5072704;28;20463;-71
2023/07/22 01:45:49;;;;;;;57.03;2.60;;;;;;;;;;5072490;28;20490;-72
2023/07/22 01:48:16;;;;;;;56.77;2.53;;;;;;;;;;5072514;28;20453;-70
2023/07/22 01:50:43;;;;;;;57.30;2.70;;;;;;;;;;5072058;28;20954;-72
2023/07/22 01:53:10;;;;;;;57.03;2.50;;;;;;;;;;5072307;28;20566;-72
2023/07/22 01:55:37;;;;;;;57.27;2.70;;;;;;;;;;5071659;28;20463;-72
2023/07/22 01:58:06;;;;;;;57.00;2.70;;;;;;;;;;5072231;28;20451;-71
2023/07/22 02:00:33;;;;;;;56.97;2.57;;;;;;;;;;5071931;28;20443;-72
2023/07/22 02:03:00;;;;;;;57.20;2.90;;;;;;;;;;5072406;28;20474;-72
2023/07/22 02:05:29;;;;;;;57.03;2.60;;;;;;;;;;5072448;28;20483;-72
2023/07/22 02:07:56;;;;;;;57.07;2.57;;;;;;;;;;5072498;28;20452;-72
2023/07/22 02:10:23;;;;;;;57.07;2.60;;;;;;;;;;5067650;28;20460;-72
2023/07/22 02:12:51;;;;;;;56.87;2.43;;;;;;;;;;5079433;28;20481;-72
2023/07/22 02:15:19;;;;;;;56.87;2.50;;;;;;;;;;5081154;28;20439;-71
2023/07/22 02:17:46;;;;;;;57.00;2.60;;;;;;;;;;5083160;28;20508;-72
2023/07/22 02:20:13;;;;;;;57.00;2.50;;;;;;;;;;5083966;28;20930;-72
2023/07/22 02:22:40;;;;;;;57.03;2.47;;;;;;;;;;5092980;28;20565;-72
2023/07/22 02:25:10;;;;;;;57.17;2.63;;;;;;;;;;5092628;28;20998;-72
2023/07/22 02:27:38;;;;;;;56.77;2.60;;;;;;;;;;5092492;28;20450;-70
2023/07/22 02:30:09;;;;;;;57.13;2.50;;;;;;;;;;5092383;28;20537;-72
2023/07/22 02:32:38;;;;;;;57.07;2.37;;;;;;;;;;5092575;28;20485;-72
2023/07/22 02:35:05;;;;;;;57.00;2.37;;;;;;;;;;5092856;28;20449;-71
2023/07/22 02:37:32;;;;;;;57.03;2.63;;;;;;;;;;5092425;28;20452;-72
2023/07/22 02:40:00;;;;;;;57.00;2.40;;;;;;;;;;5092288;28;20453;-72
2023/07/22 02:42:27;;;;;;;58.60;3.17;;;;;;;;;;5092078;28;20543;-72
2023/07/22 02:44:54;;;;;;;56.93;2.60;;;;;;;;;;5092434;28;20474;-71
2023/07/22 02:47:21;;;;;;;56.87;2.50;;;;;;;;;;5092555;28;20474;-72
2023/07/22 02:49:49;;;;;;;56.73;2.40;;;;;;;;;;5092585;28;20455;-71
2023/07/22 02:52:16;;;;;;;56.97;2.50;;;;;;;;;;5091800;28;20997;-71
2023/07/22 02:54:43;;;;;;;56.97;2.47;;;;;;;;;;5092272;28;20454;-72
2023/07/22 02:57:11;;;;;;;57.17;2.50;;;;;;;;;;5092109;28;20458;-72
2023/07/22 02:59:38;;;;;;;57.10;2.60;;;;;;;;;;5092200;28;20472;-72
2023/07/22 03:02:05;;;;;;;57.07;2.50;;;;;;;;;;5091857;28;20476;-72
2023/07/22 03:04:32;;;;;;;57.10;2.50;;;;;;;;;;5092036;28;20446;-71
2023/07/22 03:07:00;;;;;;;61.80;3.23;;;;;;;;;;5091903;28;20965;-71
2023/07/22 03:09:28;;;;;;;56.87;2.40;;;;;;;;;;5092198;28;20511;-72
2023/07/22 03:11:56;;;;;;;56.90;2.33;;;;;;;;;;5091602;28;20463;-72
2023/07/22 03:14:23;;;;;;;57.07;2.70;;;;;;;;;;5091940;28;20532;-72
2023/07/22 03:16:50;;;;;;;56.77;2.47;;;;;;;;;;5092191;28;20443;-71
2023/07/22 03:19:18;;;;;;;57.07;2.47;;;;;;;;;;5092037;28;20454;-72
2023/07/22 03:21:45;;;;;;;57.13;2.50;;;;;;;;;;5091839;28;20852;-71
2023/07/22 03:24:14;;;;;;;57.30;2.57;;;;;;;;;;5091929;28;20454;-72
2023/07/22 03:26:41;;;;;;;56.93;2.60;;;;;;;;;;5092091;28;21012;-72
2023/07/22 03:29:08;;;;;;;56.87;2.40;;;;;;;;;;5092155;28;20450;-71
2023/07/22 03:31:35;;;;;;;57.80;3.40;;;;;;;;;;5091825;28;20466;-71
2023/07/22 03:34:02;;;;;;;57.30;2.80;;;;;;;;;;5092410;28;20459;-72
2023/07/22 03:36:29;;;;;;;57.27;3.73;;;;;;;;;;5091754;28;20442;-71
2023/07/22 03:38:57;;;;;;;57.27;2.70;;;;;;;;;;5092637;28;20527;-72
2023/07/22 03:41:25;;;;;;;57.27;2.70;;;;;;;;;;5092027;28;20454;-72
2023/07/22 03:43:52;;;;;;;57.17;2.60;;;;;;;;;;5091832;28;20458;-72
2023/07/22 03:46:19;;;;;;;57.03;2.70;;;;;;;;;;5091813;28;20572;-71
2023/07/22 03:48:46;;;;;;;56.93;2.60;;;;;;;;;;5092041;28;20499;-72
2023/07/22 03:51:13;;;;;;;57.07;2.57;;;;;;;;;;5091516;28;20938;-71
2023/07/22 03:53:41;;;;;;;56.93;2.60;;;;;;;;;;5087126;28;20478;-72
2023/07/22 03:56:08;;;;;;;56.87;2.43;;;;;;;;;;5071651;28;20459;-71
2023/07/22 03:58:36;;;;;;;57.20;2.70;;;;;;;;;;5071854;28;20625;-72
2023/07/22 04:01:03;;;;;;;57.00;2.50;;;;;;;;;;5071244;28;20451;-72
2023/07/22 04:03:30;;;;;;;56.87;2.57;;;;;;;;;;5071449;28;20463;-71
2023/07/22 04:05:57;;;;;;;56.77;2.40;;;;;;;;;;5072166;28;20471;-72
2023/07/22 04:08:25;;;;;;;57.90;2.70;;;;;;;;;;5071782;28;20463;-72
2023/07/22 04:10:55;;;;;;;56.97;2.40;;;;;;;;;;5065801;28;20493;-72
2023/07/22 04:13:22;;;;;;;56.80;2.50;;;;;;;;;;5079429;28;20475;-72
2023/07/22 04:15:50;;;;;;;57.10;2.57;;;;;;;;;;5079720;28;20443;-72
2023/07/22 04:18:17;;;;;;;57.30;2.80;;;;;;;;;;5090739;28;20453;-72
2023/07/22 04:20:45;;;;;;;56.67;2.50;;;;;;;;;;5085429;28;20452;-72
2023/07/22 04:23:12;;;;;;;56.80;2.53;;;;;;;;;;5094527;28;20481;-72
2023/07/22 04:25:40;;;;;;;59.00;3.17;;;;;;;;;;5094576;28;20486;-72
2023/07/22 04:28:08;;;;;;;57.17;2.60;;;;;;;;;;5094663;28;20449;-72
2023/07/22 04:30:35;;;;;;;57.30;2.70;;;;;;;;;;5094442;28;20841;-72
2023/07/22 04:33:05;;;;;;;56.97;2.57;;;;;;;;;;5094370;28;20478;-71
2023/07/22 04:35:33;;;;;;;56.93;2.67;;;;;;;;;;5094395;28;20442;-72
2023/07/22 04:38:00;;;;;;;57.03;2.60;;;;;;;;;;5094551;28;20450;-73
2023/07/22 04:40:27;;;;;;;56.93;2.50;;;;;;;;;;5093788;28;20453;-71
2023/07/22 04:42:54;;;;;;;56.87;2.50;;;;;;;;;;5094102;28;20470;-72
2023/07/22 04:45:21;;;;;;;56.73;2.50;;;;;;;;;;5094620;28;21024;-71
2023/07/22 04:47:48;;;;;;;56.97;2.40;;;;;;;;;;5094051;28;20446;-72
2023/07/22 04:50:17;;;;;;;57.10;2.70;;;;;;;;;;5093863;28;20561;-71
2023/07/22 04:52:45;;;;;;;57.20;3.10;;;;;;;;;;5094307;28;20466;-72
2023/07/22 04:55:12;;;;;;;57.07;2.63;;;;;;;;;;5094002;28;20473;-72
2023/07/22 04:57:40;;;;;;;56.70;2.40;;;;;;;;;;5093815;28;20458;-71
2023/07/22 05:00:09;;;;;;;57.17;2.60;;;;;;;;;;5094082;28;20457;-71
2023/07/22 05:02:36;;;;;;;59.10;3.80;;;;;;;;;;5093897;28;20470;-72
2023/07/22 05:05:04;;;;;;;56.87;2.93;;;;;;;;;;5094034;28;20473;-71
2023/07/22 05:07:32;;;;;;;56.73;2.43;;;;;;;;;;5094129;28;20451;-72
2023/07/22 05:09:59;;;;;;;56.93;2.47;;;;;;;;;;5094063;28;20980;-72
2023/07/22 05:12:27;;;;;;;56.67;2.60;;;;;;;;;;5093809;28;20467;-72
2023/07/22 05:14:54;;;;;;;56.60;2.50;;;;;;;;;;5093820;28;20459;-70
2023/07/22 05:17:21;;;;;;;56.70;2.60;;;;;;;;;;5093907;28;20470;-71
2023/07/22 05:19:49;;;;;;;56.70;2.60;;;;;;;;;;5093704;28;20446;-70
2023/07/22 05:22:16;;;;;;;56.70;2.50;;;;;;;;;;5093628;28;20528;-71
2023/07/22 05:24:45;;;;;;;56.60;2.40;;;;;;;;;;5093939;28;20950;-72
2023/07/22 05:27:12;;;;;;;56.57;2.50;;;;;;;;;;5093120;28;20490;-72
2023/07/22 05:29:39;;;;;;;56.57;2.60;;;;;;;;;;5093683;28;20455;-71
2023/07/22 05:32:07;;;;;;;56.87;2.60;;;;;;;;;;5092997;28;20950;-70
2023/07/22 05:34:34;;;;;;;56.70;2.40;;;;;;;;;;5093587;28;20504;-71
2023/07/22 05:37:01;;;;;;;56.90;2.40;;;;;;;;;;5093464;28;20825;-71
2023/07/22 05:39:28;;;;;;;56.90;2.40;;;;;;;;;;5093522;28;20448;-72
2023/07/22 05:41:56;;;;;;;56.67;2.40;;;;;;;;;;5093051;28;20481;-71
2023/07/22 05:44:23;;;;;;;57.00;2.80;;;;;;;;;;5093379;28;20453;-72
2023/07/22 05:46:50;;;;;;;56.90;2.70;;;;;;;;;;5093287;28;20478;-72
2023/07/22 05:49:18;;;;;;;56.50;2.60;;;;;;;;;;5093350;28;20455;-72
2023/07/22 05:51:45;;;;;;;56.63;2.40;;;;;;;;;;5092487;28;20470;-71
2023/07/22 05:54:12;;;;;;;56.87;2.50;;;;;;;;;;5093125;28;20447;-72
2023/07/22 05:56:39;;;;;;;56.97;2.50;;;;;;;;;;5093611;28;20771;-70
2023/07/22 05:59:07;;;;;;;56.70;2.50;;;;;;;;;;5093419;28;20458;-72
2023/07/22 06:01:34;;;;;;;56.90;2.70;;;;;;;;;;5092639;28;20585;-71
2023/07/22 06:04:01;;;;;;;56.70;2.50;;;;;;;;;;5092922;28;20446;-72
2023/07/22 06:06:29;;;;;;;56.67;2.40;;;;;;;;;;5092730;28;20482;-72
2023/07/22 06:08:56;;;;;;;56.73;2.40;;;;;;;;;;5092582;28;20803;-71
2023/07/22 06:11:23;;;;;;;61.10;2.90;;;;;;;;;;5079161;28;20451;-71
2023/07/22 06:13:50;;;;;;;56.67;2.60;;;;;;;;;;5081703;28;20457;-71
2023/07/22 06:16:19;;;;;;;57.10;2.63;;;;;;;;;;5085843;28;20945;-72
2023/07/22 06:18:46;;;;;;;57.00;2.50;;;;;;;;;;5083919;28;20454;-71
2023/07/22 06:21:13;;;;;;;56.83;2.67;;;;;;;;;;5091960;28;20446;-71
2023/07/22 06:23:40;;;;;;;56.90;2.50;;;;;;;;;;5086096;28;20491;-71
2023/07/22 06:26:07;;;;;;;56.67;2.50;;;;;;;;;;5083595;28;20486;-71
2023/07/22 06:28:34;;;;;;;56.77;2.60;;;;;;;;;;5092409;28;20821;-71
2023/07/22 06:31:01;;;;;;;56.63;2.30;;;;;;;;;;5091941;28;20453;-72
2023/07/22 06:33:30;;;;;;;56.97;2.77;;;;;;;;;;5092446;28;20474;-71
2023/07/22 06:35:57;;;;;;;57.40;2.50;;;;;;;;;;5091700;28;20431;-72
2023/07/22 06:38:24;;;;;;;56.87;2.40;;;;;;;;;;5092053;28;20438;-70
2023/07/22 06:40:54;;;;;;;56.60;2.30;;;;;;;;;;5089552;28;20452;-72
2023/07/22 06:43:21;;;;;;;56.60;2.50;;;;;;;;;;5082948;28;20474;-71
2023/07/22 06:45:48;;;;;;;56.90;2.83;;;;;;;;;;5091815;28;20486;-71
2023/07/22 06:48:15;;;;;;;56.40;2.30;;;;;;;;;;5091837;28;20460;-71
2023/07/22 06:50:49;;;;;;;56.73;2.30;;;;;;;;;;5092065;28;20955;-71
2023/07/22 06:53:16;;;;;;;56.47;2.20;;;;;;;;;;5092003;28;20470;-71
2023/07/22 06:55:49;;;;;;;56.70;3.23;;;;;;;;;;5091550;28;20946;-71
2023/07/22 06:58:17;;;;;;;56.57;2.40;;;;;;;;;;5091766;28;20451;-71
2023/07/22 07:00:44;;;;;;;56.57;2.30;;;;;;;;;;5091716;28;20446;-72
2023/07/22 07:03:11;;;;;;;57.00;2.73;;;;;;;;;;5091538;28;20557;-71
2023/07/22 07:05:41;;;;;;;60.00;2.70;;;;;;;;;;5091424;28;20446;-72
2023/07/22 07:08:11;;;;;;;57.10;2.37;;;;;;;;;;5091693;28;20942;-72
2023/07/22 07:10:39;;;;;;;57.10;2.40;;;;;;;;;;5091569;28;20500;-72
2023/07/22 07:13:06;;;;;;;56.50;2.20;;;;;;;;;;5091471;28;20514;-71
2023/07/22 07:15:33;;;;;;;56.30;2.20;;;;;;;;;;5091518;28;20453;-72
2023/07/22 07:18:00;;;;;;;56.70;2.43;;;;;;;;;;5091852;28;20455;-72
2023/07/22 07:20:27;;;;;;;56.57;2.30;;;;;;;;;;5091309;28;20965;-71
2023/07/22 07:22:54;;;;;;;56.50;2.10;;;;;;;;;;5091486;28;20481;-72
2023/07/22 07:25:22;;;;;;;56.60;2.30;;;;;;;;;;5091373;28;20454;-72
2023/07/22 07:27:50;;;;;;;56.23;2.00;;;;;;;;;;5091379;28;20509;-71
2023/07/22 07:30:17;;;;;;;56.40;2.10;;;;;;;;;;5091215;28;20458;-72
2023/07/22 07:32:44;;;;;;;56.47;1.93;;;;;;;;;;5091545;28;20473;-71
2023/07/22 07:35:11;;;;;;;56.57;2.23;;;;;;;;;;5091646;28;20502;-72
2023/07/22 07:37:38;;;;;;;56.20;2.03;;;;;;;;;;5091687;28;20442;-72
2023/07/22 07:40:06;;;;;;;56.67;2.30;;;;;;;;;;5091226;28;20454;-72
2023/07/22 07:42:34;;;;;;;56.23;2.10;;;;;;;;;;5091410;28;20471;-71
2023/07/22 07:45:01;;;;;;;56.40;2.30;;;;;;;;;;5091471;28;20454;-72
2023/07/22 07:47:29;;;;;;;56.57;2.10;;;;;;;;;;5091080;28;20518;-71
2023/07/22 07:49:56;;;;;;;57.50;2.70;;;;;;;;;;5091452;28;20446;-71
2023/07/22 07:52:23;;;;;;;56.33;2.00;;;;;;;;;;5090770;28;20619;-71
2023/07/22 07:54:50;;;;;;;56.50;2.10;;;;;;;;;;5092573;28;20814;-72
2023/07/22 07:57:17;;;;;;;56.53;2.00;;;;;;;;;;5095139;28;20550;-71
2023/07/22 07:59:46;;;;;;;56.40;2.20;;;;;;;;;;5094805;28;20446;-71
2023/07/22 08:02:13;;;;;;;56.87;2.60;;;;;;;;;;5086013;28;20472;-69
2023/07/22 08:04:40;;;;;;;56.17;2.33;;;;;;;;;;5083441;28;20452;-70
2023/07/22 08:07:08;;;;;;;56.90;2.20;;;;;;;;;;5077770;28;20550;-71
2023/07/22 08:09:36;;;;;;;56.80;2.20;;;;;;;;;;5081625;28;20458;-70
2023/07/22 08:12:03;;;;;;;56.87;2.20;;;;;;;;;;5072876;28;20922;-68
2023/07/22 08:14:30;;;;;;;56.70;2.10;;;;;;;;;;5081158;28;20446;-70
2023/07/22 08:16:59;;;;;;;56.63;2.03;;;;;;;;;;5079130;28;20477;-70
2023/07/22 08:19:26;;;;;;;56.20;2.00;;;;;;;;;;5085736;28;20447;-71
2023/07/22 08:21:53;;;;;;;58.50;2.87;;;;;;;;;;5075404;28;21060;-69
2023/07/22 08:24:20;;;;;;;56.17;2.10;;;;;;;;;;5075055;28;20444;-69
2023/07/22 08:26:47;;;;;;;56.67;2.53;;;;;;;;;;5075589;28;20487;-70
2023/07/22 08:29:14;;;;;;;56.43;2.23;;;;;;;;;;5074804;28;20462;-70
2023/07/22 08:31:41;;;;;;;55.67;2.00;;;;;;;;;;5076114;28;20490;-70
2023/07/22 08:34:10;;;;;;;56.43;2.17;;;;;;;;;;5075213;28;20512;-69
2023/07/22 08:36:37;;;;;;;56.47;2.20;;;;;;;;;;5075182;28;20459;-69
2023/07/22 08:39:04;;;;;;;56.50;2.30;;;;;;;;;;5075616;28;20463;-71
2023/07/22 08:41:31;;;;;;;56.47;2.10;;;;;;;;;;5081525;28;20481;-71
2023/07/22 08:44:00;;;;;;;56.70;2.00;;;;;;;;;;5084215;28;20451;-71
2023/07/22 08:46:29;;;;;;;55.97;1.80;;;;;;;;;;5083352;28;20486;-71
2023/07/22 08:48:56;;;;;;;57.40;2.40;;;;;;;;;;5093435;28;20964;-69
2023/07/22 08:51:28;;;;;;;56.50;2.03;;;;;;;;;;5088472;28;20934;-71
2023/07/22 08:53:57;;;;;;;56.50;1.93;;;;;;;;;;5087057;28;20453;-69
2023/07/22 08:56:25;;;;;;;56.80;2.30;;;;;;;;;;5095879;28;20446;-71
2023/07/22 08:58:52;;;;;;;56.77;2.03;;;;;;;;;;5095691;28;20446;-71
2023/07/22 09:01:20;;;;;;;56.27;2.10;;;;;;;;;;5095463;28;20454;-71
2023/07/22 09:03:48;;;;;;;56.00;2.00;;;;;;;;;;5088863;28;20442;-71
2023/07/22 09:06:15;;;;;;;56.70;2.00;;;;;;;;;;5087605;28;20453;-71
2023/07/22 09:08:44;;;;;;;56.27;2.00;;;;;;;;;;5095445;28;20840;-70
2023/07/22 09:11:12;;;;;;;56.30;1.97;;;;;;;;;;5095163;28;20450;-71
2023/07/22 09:13:40;;;;;;;58.07;2.40;;;;;;;;;;5095095;28;20450;-71
2023/07/22 09:16:07;;;;;;;55.97;2.30;;;;;;;;;;5094650;28;20549;-70
2023/07/22 09:18:35;;;;;;;56.20;2.00;;;;;;;;;;5094974;28;20854;-71
2023/07/22 09:21:03;;;;;;;56.40;1.90;;;;;;;;;;5095058;28;20446;-71
2023/07/22 09:23:33;;;;;;;56.47;1.90;;;;;;;;;;5095224;28;20474;-70
2023/07/22 09:26:11;;;;;;;56.20;2.47;;;;;;;;;;5094764;28;20454;-71
2023/07/22 09:28:50;;;;;;;56.20;2.23;;;;;;;;;;5095064;28;20857;-70
2023/07/22 09:31:18;;;;;;;56.30;1.90;;;;;;;;;;5095106;28;20458;-70
2023/07/22 09:33:45;;;;;;;57.00;2.60;;;;;;;;;;5095427;28;20485;-71
2023/07/22 09:36:12;;;;;;;56.37;1.90;;;;;;;;;;5094583;28;20455;-71
2023/07/22 09:38:39;;;;;;;56.37;2.10;;;;;;;;;;5095127;28;20897;-70
2023/07/22 09:41:07;;;;;;;56.80;2.33;;;;;;;;;;5094799;28;20450;-71
2023/07/22 09:43:39;;;;;;;56.20;1.90;;;;;;;;;;5094750;28;20473;-71
2023/07/22 09:46:09;;;;;;;56.80;2.23;;;;;;;;;;5095684;28;20459;-71
2023/07/22 09:48:43;;;;;;;56.17;1.80;;;;;;;;;;5094764;28;21024;-71
2023/07/22 09:51:14;;;;;;;56.60;2.30;;;;;;;;;;5094558;28;20451;-70
2023/07/22 09:53:45;;;;;;;56.10;1.73;;;;;;;;;;5095294;28;20446;-71
2023/07/22 09:56:12;;;;;;;56.30;1.90;;;;;;;;;;5094660;28;20454;-71
2023/07/22 09:58:41;;;;;;;56.27;1.83;;;;;;;;;;5095642;28;20446;-71
2023/07/22 10:01:09;;;;;;;56.80;2.10;;;;;;;;;;5095201;28;20552;-71
2023/07/22 10:03:38;;;;;;;56.40;1.93;;;;;;;;;;5084137;28;20458;-70
2023/07/22 10:06:07;;;;;;;56.23;1.67;;;;;;;;;;5086142;28;20447;-71
2023/07/22 10:08:37;;;;;;;56.20;1.80;;;;;;;;;;5094732;28;20483;-69
2023/07/22 10:11:07;;;;;;;56.17;1.60;;;;;;;;;;5095014;28;20454;-71
2023/07/22 10:13:34;;;;;;;56.20;1.80;;;;;;;;;;5095136;28;20458;-71
2023/07/22 10:16:03;;;;;;;56.50;2.00;;;;;;;;;;5094532;28;20446;-72
2023/07/22 10:18:31;;;;;;;56.07;1.90;;;;;;;;;;5093879;28;20451;-72
2023/07/22 10:20:59;;;;;;;56.27;2.00;;;;;;;;;;5093457;28;20442;-70
2023/07/22 10:23:27;;;;;;;56.27;1.73;;;;;;;;;;5094722;28;20977;-70
2023/07/22 10:25:55;;;;;;;56.80;2.50;;;;;;;;;;5093849;28;20457;-70
2023/07/22 10:28:23;;;;;;;55.90;1.70;;;;;;;;;;5094871;28;20478;-70
2023/07/22 10:30:51;;;;;;;56.00;1.73;;;;;;;;;;5094059;28;20455;-69
2023/07/22 10:33:19;;;;;;;55.67;1.70;;;;;;;;;;5094102;28;20481;-70
2023/07/22 10:36:03;;;;;;;56.10;2.00;;;;;;;;;;5093777;28;20455;-70
2023/07/22 10:38:30;;;;;;;55.77;2.00;;;;;;;;;;5093946;28;20456;-70
2023/07/22 10:40:57;;;;;;;55.87;1.57;;;;;;;;;;5094515;28;20455;-70
2023/07/22 10:43:26;;;;;;;55.73;1.73;;;;;;;;;;5094288;28;20477;-70
2023/07/22 10:45:54;;;;;;;56.07;1.73;;;;;;;;;;5093049;28;20451;-70
2023/07/22 10:48:23;;;;;;;55.87;1.77;;;;;;;;;;5093536;28;20482;-70
2023/07/22 10:50:51;;;;;;;56.07;1.90;;;;;;;;;;5093830;28;20454;-70
2023/07/22 10:53:22;;;;;;;55.97;1.70;;;;;;;;;;5094344;28;20474;-70
2023/07/22 10:56:05;;;;;;;58.73;2.27;;;;;;;;;;5094559;28;20466;-70
2023/07/22 10:58:32;;;;;;;56.57;1.70;;;;;;;;;;5094251;28;20445;-70
2023/07/22 11:01:14;;;;;;;55.77;1.73;;;;;;;;;;5094771;28;20451;-71
2023/07/22 11:03:56;;;;;;;56.30;2.07;;;;;;;;;;5093664;28;21050;-71
2023/07/22 11:06:25;;;;;;;55.90;1.63;;;;;;;;;;5093024;28;20450;-72
2023/07/22 11:08:52;;;;;;;55.90;1.93;;;;;;;;;;5094163;28;20490;-70
2023/07/22 11:11:20;;;;;;;55.60;1.60;;;;;;;;;;5092827;28;20453;-72
2023/07/22 11:13:47;;;;;;;56.87;1.77;;;;;;;;;;5073808;28;20451;-72
2023/07/22 11:16:14;;;;;;;55.50;1.60;;;;;;;;;;5074224;28;20455;-71
2023/07/22 11:18:42;;;;;;;55.50;1.50;;;;;;;;;;5074277;28;20450;-71
2023/07/22 11:21:10;;;;;;;55.63;1.50;;;;;;;;;;5074510;28;20451;-71
2023/07/22 11:23:39;;;;;;;55.77;1.67;;;;;;;;;;5074837;28;20556;-71
2023/07/22 11:26:06;;;;;;;55.67;1.50;;;;;;;;;;5074139;28;20864;-71
2023/07/22 11:28:33;;;;;;;56.30;1.70;;;;;;;;;;5074409;28;20493;-71
2023/07/22 11:31:00;;;;;;;55.97;1.73;;;;;;;;;;5076398;28;20451;-70
2023/07/22 11:33:27;;;;;;;56.20;1.70;;;;;;;;;;5077128;28;20467;-71
2023/07/22 11:35:55;;;;;;;55.70;1.70;;;;;;;;;;5076678;28;20811;-71
2023/07/22 11:38:22;;;;;;;56.10;1.70;;;;;;;;;;5076026;28;20454;-71
2023/07/22 11:40:50;;;;;;;56.50;1.87;;;;;;;;;;5075845;28;20456;-70
2023/07/22 11:43:17;;;;;;;56.00;1.70;;;;;;;;;;5075840;28;20486;-70
2023/07/22 11:45:45;;;;;;;55.90;1.60;;;;;;;;;;5076411;28;20498;-71
2023/07/22 11:48:12;;;;;;;55.73;1.73;;;;;;;;;;5075786;28;20483;-71
2023/07/22 11:50:40;;;;;;;55.90;1.80;;;;;;;;;;5075633;28;20959;-72
2023/07/22 11:53:08;;;;;;;55.60;1.40;;;;;;;;;;5075911;28;20843;-71
2023/07/22 11:55:37;;;;;;;56.00;2.40;;;;;;;;;;5076372;28;20456;-71
2023/07/22 11:58:05;;;;;;;55.40;1.50;;;;;;;;;;5076182;28;20505;-71
2023/07/22 12:00:34;;;;;;;55.57;1.70;;;;;;;;;;5076519;28;20466;-71
2023/07/22 12:03:06;;;;;;;55.40;1.40;;;;;;;;;;5076066;28;20483;-73
2023/07/22 12:05:37;;;;;;;55.27;1.70;;;;;;;;;;5076045;28;20477;-71
2023/07/22 12:08:06;;;;;;;55.13;1.70;;;;;;;;;;5075193;28;20559;-70
2023/07/22 12:10:34;;;;;;;55.17;1.40;;;;;;;;;;5077652;28;20455;-71
2023/07/22 12:13:03;;;;;;;55.40;2.00;;;;;;;;;;5077219;28;20532;-71
2023/07/22 12:15:31;;;;;;;55.10;1.70;;;;;;;;;;5075760;28;20507;-70
2023/07/22 12:18:00;;;;;;;55.23;1.53;;;;;;;;;;5076130;28;20453;-70
2023/07/22 12:20:28;;;;;;;54.97;1.50;;;;;;;;;;5076185;28;20451;-71
2023/07/22 12:22:55;;;;;;;55.10;1.60;;;;;;;;;;5076087;28;20998;-71
2023/07/22 12:25:22;;;;;;;54.87;1.40;;;;;;;;;;5075306;28;20969;-71
2023/07/22 12:27:50;;;;;;;55.20;1.70;;;;;;;;;;5075626;28;20505;-71
2023/07/22 12:30:17;;;;;;;55.07;1.53;;;;;;;;;;5075547;28;20524;-71
2023/07/22 12:32:45;;;;;;;55.20;1.63;;;;;;;;;;5075210;28;20478;-71
2023/07/22 12:35:13;;;;;;;55.10;1.60;;;;;;;;;;5076567;28;20478;-71
2023/07/22 12:37:40;;;;;;;55.07;1.50;;;;;;;;;;5075806;28;20451;-72
2023/07/22 12:40:08;;;;;;;55.97;2.00;;;;;;;;;;5074621;28;20984;-71
2023/07/22 12:42:35;;;;;;;55.20;2.30;;;;;;;;;;5075414;28;20467;-70
2023/07/22 12:45:02;;;;;;;55.07;1.60;;;;;;;;;;5075151;28;20455;-71
2023/07/22 12:47:29;;;;;;;55.20;2.17;;;;;;;;;;5074968;28;20816;-71
2023/07/22 12:49:58;;;;;;;54.80;1.90;;;;;;;;;;5074305;28;20454;-70
2023/07/22 12:52:25;;;;;;;54.80;1.70;;;;;;;;;;5075093;28;20472;-70
2023/07/22 12:54:52;;;;;;;55.00;1.60;;;;;;;;;;5075654;28;20840;-71
2023/07/22 12:57:19;;;;;;;55.00;1.90;;;;;;;;;;5075218;28;20458;-69
2023/07/22 12:59:46;;;;;;;55.30;1.70;;;;;;;;;;5075199;28;20458;-70
2023/07/22 13:02:13;;;;;;;56.30;2.10;;;;;;;;;;5075103;28;20466;-70
2023/07/22 13:04:40;;;;;;;55.70;2.20;;;;;;;;;;5076186;28;20813;-71
2023/07/22 13:07:09;;;;;;;55.60;1.90;;;;;;;;;;5075885;28;20458;-70
2023/07/22 13:09:36;;;;;;;55.80;1.70;;;;;;;;;;5075263;28;20514;-71
2023/07/22 13:12:03;;;;;;;56.10;2.03;;;;;;;;;;5075662;28;20467;-71
2023/07/22 13:14:30;;;;;;;56.60;1.70;;;;;;;;;;5076255;28;20825;-71
2023/07/22 13:16:57;;;;;;;56.40;2.10;;;;;;;;;;5075447;28;20478;-71
2023/07/22 13:19:24;;;;;;;55.90;1.90;;;;;;;;;;5076184;28;20455;-70
2023/07/22 13:21:51;;;;;;;55.70;1.57;;;;;;;;;;5075393;28;21007;-71
2023/07/22 13:24:20;;;;;;;55.60;1.93;;;;;;;;;;5075226;28;20456;-71
2023/07/22 13:26:47;;;;;;;55.60;2.47;;;;;;;;;;5074343;28;20974;-71
2023/07/22 13:29:14;;;;;;;55.80;1.70;;;;;;;;;;5074704;28;20497;-71
2023/07/22 13:31:41;;;;;;;55.20;1.40;;;;;;;;;;5074573;28;20476;-71
2023/07/22 13:34:08;;;;;;;55.67;1.97;;;;;;;;;;5075371;28;20927;-71
2023/07/22 13:36:36;;;;;;;55.60;2.03;;;;;;;;;;5074971;28;20455;-71
2023/07/22 13:39:03;;;;;;;56.10;2.13;;;;;;;;;;5074935;28;20462;-71
2023/07/22 13:41:31;;;;;;;55.60;1.70;;;;;;;;;;5074245;28;20566;-71
2023/07/22 13:43:58;;;;;;;55.80;1.60;;;;;;;;;;5074700;28;20850;-70
2023/07/22 13:46:25;;;;;;;56.67;2.37;;;;;;;;;;5074891;28;20451;-71
2023/07/22 13:48:52;;;;;;;55.70;1.90;;;;;;;;;;5074034;28;21031;-71
2023/07/22 13:51:20;;;;;;;55.30;1.57;;;;;;;;;;5074064;28;20455;-71
2023/07/22 13:53:47;;;;;;;55.30;1.43;;;;;;;;;;5075001;28;20455;-71
2023/07/22 13:56:14;;;;;;;55.10;1.77;;;;;;;;;;5074129;28;20465;-71
2023/07/22 13:58:42;;;;;;;56.33;2.37;;;;;;;;;;5075290;28;20463;-70
2023/07/22 14:01:09;;;;;;;55.60;1.90;;;;;;;;;;5075170;28;20448;-70
2023/07/22 14:03:36;;;;;;;55.27;1.60;;;;;;;;;;5075697;28;20443;-71
2023/07/22 14:06:03;;;;;;;55.80;1.93;;;;;;;;;;5074570;28;20458;-71
2023/07/22 14:08:30;;;;;;;55.50;1.60;;;;;;;;;;5074781;28;20806;-71
2023/07/22 14:10:58;;;;;;;55.67;1.60;;;;;;;;;;5075398;28;20463;-71
2023/07/22 14:13:25;;;;;;;55.90;1.67;;;;;;;;;;5075139;28;20482;-71
2023/07/22 14:15:53;;;;;;;55.30;1.50;;;;;;;;;;5074937;28;20457;-71
2023/07/22 14:18:20;;;;;;;55.37;1.80;;;;;;;;;;5074304;28;20461;-70
2023/07/22 14:20:48;;;;;;;56.37;2.33;;;;;;;;;;5075035;28;20463;-70
2023/07/22 14:23:16;;;;;;;55.80;2.10;;;;;;;;;;5076359;28;20485;-71
2023/07/22 14:25:43;;;;;;;56.00;1.90;;;;;;;;;;5076304;28;20799;-71
2023/07/22 14:28:10;;;;;;;55.60;1.80;;;;;;;;;;5075341;28;20943;-70
2023/07/22 14:30:37;;;;;;;56.00;2.00;;;;;;;;;;5075894;28;20452;-71
2023/07/22 14:33:05;;;;;;;55.47;1.50;;;;;;;;;;5074723;28;20467;-71
2023/07/22 14:35:34;;;;;;;55.50;1.40;;;;;;;;;;5075181;28;20447;-70